Main page


Airports :

Zahedan, Iran

Zahedan Airport

latitude: 29-28N, longitude: 060-53E, elevation: 1370 m

Current weather observation

The report was made 17 minutes ago, at 06:00 UTC
Wind 14 kt from the West
Temperature 15°C
Humidity 41%
Pressure 1022 hPa
Visibility 10 km or more
Few clouds at a height of 4000 ft

METAR: OIZH 200600Z 28014KT 9999 FEW040 15/02 Q1021 A3017 NOSIG

Time: 09:47 (06:17 UTC)


The report was made 47 minutes ago, at 05:30 UTC
Forecast valid from 20 at 06 UTC to 21 at 12 UTC
Wind 8 kt from the North/Northwest
Visibility 10 km or more
no clouds below 1500 m and no cumulonimbus

TAF: OIZH 200530Z 2006/2112 34004MPS CAVOK

Weather observations and forecasts of more than 4000 airports (METAR and TAF reports).

The available stations are represented by yellow and red dots on the map.

Hover mouse over dot to see the name of the station.

Then click to see weather observations and forecasts.

To change the map : click on the green buttons with a black cross to zoom in, on the green button with a dash to zoom out, or on the green arrows for adjacent maps.